Time;durP1;ratioP1;P1;durP2;ratioP2;P2;SDS_P1;SDS_P2;PMS_P1;PMS_P2;Temp;Humidity;BMP_temperature;BMP_pressure;BME280_temperature;BME280_humidity;BME280_pressure;Samples;Min_cycle;Max_cycle;Signal;HPM_P1;HPM_P2
2022/10/02 00:00:21;;;;;;;1.55;1.45;;;10.90;99.90;;;;;;5016796;28;20095;-78
2022/10/02 00:02:53;;;;;;;2.55;1.40;;;10.90;99.90;;;;;;5033797;28;20049;-78
2022/10/02 00:05:33;;;;;;;1.45;1.35;;;10.90;99.90;;;;;;5033694;28;20490;-78
2022/10/02 00:08:06;;;;;;;1.48;1.30;;;10.90;99.90;;;;;;5034049;28;20490;-78
2022/10/02 00:10:44;;;;;;;2.08;1.40;;;10.80;99.90;;;;;;5032621;28;20037;-79
2022/10/02 00:13:25;;;;;;;1.77;1.10;;;10.80;99.90;;;;;;5021903;28;20094;-78
2022/10/02 00:15:52;;;;;;;1.23;1.13;;;10.80;99.90;;;;;;5017307;28;20124;-78
2022/10/02 00:18:27;;;;;;;1.30;1.15;;;10.80;99.90;;;;;;5033872;28;20041;-78
2022/10/02 00:21:07;;;;;;;1.50;1.20;;;10.70;99.90;;;;;;5032584;28;20083;-79
2022/10/02 00:23:40;;;;;;;1.85;1.55;;;10.70;99.90;;;;;;5036343;28;20048;-79
2022/10/02 00:26:16;;;;;;;1.73;1.17;;;10.70;99.90;;;;;;5041878;28;20107;-79
2022/10/02 00:28:45;;;;;;;1.60;0.93;;;10.70;99.90;;;;;;5030074;28;20138;-79
2022/10/02 00:31:29;;;;;;;1.20;1.10;;;10.60;99.90;;;;;;4997472;28;20051;-78
2022/10/02 00:33:55;;;;;;;1.42;1.10;;;10.70;99.90;;;;;;5017746;28;20033;-79
2022/10/02 00:36:36;;;;;;;1.45;1.10;;;10.60;99.90;;;;;;5025049;28;20052;-78
2022/10/02 00:39:17;;;;;;;1.40;1.00;;;10.60;99.90;;;;;;5033308;28;20036;-78
2022/10/02 00:41:58;;;;;;;0.85;0.85;;;10.60;99.90;;;;;;5017053;28;20041;-78
2022/10/02 00:44:42;;;;;;;1.30;1.10;;;10.60;99.90;;;;;;5032331;28;20048;-78
2022/10/02 00:47:36;;;;;;;1.17;0.88;;;10.60;99.90;;;;;;5025087;28;20040;-78
2022/10/02 00:50:14;;;;;;;1.17;1.08;;;10.60;99.90;;;;;;5031395;28;20403;-78
2022/10/02 00:53:06;;;;;;;1.15;1.02;;;10.50;99.90;;;;;;5016841;28;20037;-78
2022/10/02 00:56:20;;;;;;;1.52;0.90;;;10.50;99.90;;;;;;5016646;28;20038;-78
2022/10/02 00:58:58;;;;;;;1.10;0.90;;;10.50;99.90;;;;;;4998961;28;20045;-79
2022/10/02 01:01:31;;;;;;;1.95;0.90;;;10.50;99.90;;;;;;5029778;28;20046;-79
2022/10/02 01:04:00;;;;;;;0.98;0.90;;;10.50;99.90;;;;;;5030384;28;20041;-79
2022/10/02 01:06:27;;;;;;;1.55;0.98;;;10.50;99.90;;;;;;5000167;28;20029;-79
2022/10/02 01:08:54;;;;;;;1.33;1.23;;;10.50;99.90;;;;;;5033013;28;20044;-79
2022/10/02 01:11:22;;;;;;;1.20;1.10;;;10.50;99.90;;;;;;5016385;28;20048;-79
2022/10/02 01:13:47;;;;;;;2.47;1.27;;;10.50;99.90;;;;;;5022444;28;20040;-78
2022/10/02 01:16:14;;;;;;;2.40;1.17;;;10.60;99.90;;;;;;5034828;28;20034;-78
2022/10/02 01:18:41;;;;;;;1.75;1.23;;;10.60;99.90;;;;;;5031037;28;20033;-79
2022/10/02 01:21:45;;;;;;;1.15;1.05;;;10.70;99.90;;;;;;5017178;28;20411;-78
2022/10/02 01:24:23;;;;;;;2.17;1.10;;;10.70;99.90;;;;;;5034456;28;20053;-78
2022/10/02 01:26:49;;;;;;;1.67;1.23;;;10.70;99.90;;;;;;5035740;28;20045;-78
2022/10/02 01:29:15;;;;;;;1.20;1.10;;;10.70;99.90;;;;;;5019837;28;20091;-78
2022/10/02 01:31:41;;;;;;;1.88;0.98;;;10.70;99.90;;;;;;5036621;28;20088;-78
2022/10/02 01:34:08;;;;;;;1.65;1.30;;;10.70;99.90;;;;;;5036534;28;20129;-78
2022/10/02 01:36:34;;;;;;;1.40;1.20;;;10.70;99.90;;;;;;5020434;28;20514;-78
2022/10/02 01:39:01;;;;;;;1.73;1.00;;;10.70;99.90;;;;;;5034784;28;20041;-78
2022/10/02 01:41:26;;;;;;;1.50;1.08;;;10.70;99.90;;;;;;5019909;28;20072;-78
2022/10/02 01:44:00;;;;;;;1.60;1.15;;;10.70;99.90;;;;;;5033614;28;20072;-78
2022/10/02 01:46:49;;;;;;;1.35;1.02;;;10.70;99.90;;;;;;5024431;28;20431;-78
2022/10/02 01:49:26;;;;;;;1.25;1.15;;;10.70;99.90;;;;;;5031883;28;20041;-78
2022/10/02 01:52:01;;;;;;;1.50;1.08;;;10.70;99.90;;;;;;5022955;28;20045;-78
2022/10/02 01:55:01;;;;;;;1.42;1.00;;;10.70;99.90;;;;;;5016305;28;20037;-78
2022/10/02 01:57:55;;;;;;;1.30;1.00;;;10.70;99.90;;;;;;5023576;28;20072;-78
2022/10/02 02:00:24;;;;;;;2.38;0.90;;;10.70;99.90;;;;;;5030595;28;20037;-77
2022/10/02 02:03:00;;;;;;;1.30;1.10;;;10.70;99.90;;;;;;5035022;28;20047;-78
2022/10/02 02:06:00;;;;;;;1.42;1.08;;;10.70;99.90;;;;;;5036154;28;20190;-78
2022/10/02 02:08:29;;;;;;;1.38;1.00;;;10.70;99.90;;;;;;5022354;28;20045;-78
2022/10/02 02:11:14;;;;;;;1.65;1.20;;;10.70;99.90;;;;;;4999901;28;20087;-78
2022/10/02 02:13:44;;;;;;;1.15;1.00;;;10.70;99.90;;;;;;5049146;28;20048;-78
2022/10/02 02:16:34;;;;;;;1.13;1.02;;;10.70;99.90;;;;;;5034514;28;20033;-78
2022/10/02 02:19:24;;;;;;;1.58;1.00;;;10.70;99.90;;;;;;5035831;28;20041;-78
2022/10/02 02:22:07;;;;;;;0.80;0.80;;;10.70;99.90;;;;;;5035617;28;20053;-78
2022/10/02 02:24:38;;;;;;;0.70;0.70;;;10.70;99.90;;;;;;5052360;28;20495;-78
2022/10/02 02:27:05;;;;;;;0.75;0.75;;;10.70;99.90;;;;;;5033593;28;20299;-78
2022/10/02 02:29:33;;;;;;;0.85;0.80;;;10.70;99.90;;;;;;5033663;28;20132;-77
2022/10/02 02:32:04;;;;;;;1.13;0.70;;;10.70;99.90;;;;;;5018587;28;20564;-78
2022/10/02 02:35:00;;;;;;;1.60;0.70;;;10.70;99.90;;;;;;5035804;28;20141;-78
2022/10/02 02:37:28;;;;;;;0.77;0.70;;;10.70;99.90;;;;;;5013433;28;20045;-78
2022/10/02 02:40:03;;;;;;;1.20;0.60;;;10.70;99.90;;;;;;4999348;28;20121;-78
2022/10/02 02:42:32;;;;;;;0.70;0.70;;;10.70;99.90;;;;;;5030561;28;20102;-78
2022/10/02 02:45:26;;;;;;;0.77;0.70;;;10.60;99.90;;;;;;5018649;28;20072;-78
2022/10/02 02:47:55;;;;;;;1.40;0.60;;;10.60;99.90;;;;;;5018147;28;20068;-78
2022/10/02 02:50:36;;;;;;;0.82;0.50;;;10.60;99.90;;;;;;5018662;28;20036;-78
2022/10/02 02:53:13;;;;;;;0.60;0.60;;;10.50;99.90;;;;;;5042600;28;20071;-78
2022/10/02 02:55:46;;;;;;;0.70;0.70;;;10.50;99.90;;;;;;5035065;28;20049;-78
2022/10/02 02:58:38;;;;;;;0.60;0.60;;;10.50;99.90;;;;;;5034287;28;20151;-78
2022/10/02 03:01:03;;;;;;;0.80;0.68;;;10.50;99.90;;;;;;5018491;28;20037;-78
2022/10/02 03:03:29;;;;;;;0.52;0.52;;;10.40;99.90;;;;;;5034765;28;20043;-78
2022/10/02 03:06:16;;;;;;;1.05;0.65;;;10.40;99.90;;;;;;5034650;28;20078;-78
2022/10/02 03:08:42;;;;;;;0.65;0.65;;;10.40;99.90;;;;;;5033897;28;20053;-78
2022/10/02 03:11:59;;;;;;;0.57;0.57;;;10.40;99.90;;;;;;5021557;28;20077;-78
2022/10/02 03:14:41;;;;;;;1.50;0.60;;;10.40;99.90;;;;;;4898332;29;20102;-78
2022/10/02 03:17:19;;;;;;;0.63;0.52;;;10.40;99.90;;;;;;4931982;29;20102;-78
2022/10/02 03:20:24;;;;;;;0.70;0.70;;;10.40;99.90;;;;;;5012662;28;20077;-78
2022/10/02 03:23:07;;;;;;;0.85;0.73;;;10.40;99.90;;;;;;5017423;28;20118;-78
2022/10/02 03:25:44;;;;;;;0.60;0.60;;;10.40;99.90;;;;;;5034535;28;20037;-78
2022/10/02 03:28:29;;;;;;;0.60;0.60;;;10.40;99.90;;;;;;5007206;28;20514;-78
2022/10/02 03:30:56;;;;;;;0.60;0.60;;;10.40;99.90;;;;;;5002187;28;20041;-78
2022/10/02 03:33:23;;;;;;;0.80;0.65;;;10.40;99.90;;;;;;5033669;28;20037;-78
2022/10/02 03:35:50;;;;;;;1.08;0.90;;;10.30;99.90;;;;;;5034165;28;20491;-78
2022/10/02 03:38:16;;;;;;;1.05;0.73;;;10.30;99.90;;;;;;5033162;28;20162;-78
2022/10/02 03:40:42;;;;;;;2.50;0.77;;;10.30;99.90;;;;;;5034255;28;20083;-78
2022/10/02 03:43:17;;;;;;;0.70;0.70;;;10.30;99.90;;;;;;5034096;28;20433;-78
2022/10/02 03:45:42;;;;;;;1.45;0.80;;;10.40;99.90;;;;;;5033487;28;20052;-78
2022/10/02 03:48:08;;;;;;;1.00;0.70;;;10.30;99.90;;;;;;5032927;28;20045;-78
2022/10/02 03:50:33;;;;;;;1.10;0.98;;;10.30;99.90;;;;;;5034076;28;20045;-78
2022/10/02 03:52:59;;;;;;;1.40;1.00;;;10.40;99.90;;;;;;5017655;28;20037;-78
2022/10/02 03:55:41;;;;;;;0.95;0.73;;;10.40;99.90;;;;;;5015675;28;20088;-78
2022/10/02 03:58:17;;;;;;;1.30;1.00;;;10.30;99.90;;;;;;5022803;28;20045;-78
2022/10/02 04:01:17;;;;;;;1.95;0.95;;;10.40;99.90;;;;;;5033952;28;20048;-78
2022/10/02 04:03:51;;;;;;;1.73;1.00;;;10.40;99.90;;;;;;5041087;23;20103;-77
2022/10/02 04:06:28;;;;;;;1.40;1.20;;;10.30;99.90;;;;;;5037823;28;20039;-77
2022/10/02 04:09:08;;;;;;;1.25;1.10;;;10.30;99.90;;;;;;5052147;28;20044;-77
2022/10/02 04:11:39;;;;;;;1.42;0.90;;;10.30;99.90;;;;;;5053839;28;20417;-77
2022/10/02 04:14:29;;;;;;;1.05;0.95;;;10.30;99.90;;;;;;5053500;28;20418;-77
2022/10/02 04:17:00;;;;;;;1.23;1.00;;;10.40;99.90;;;;;;5069395;28;20115;-77
2022/10/02 04:19:34;;;;;;;1.25;0.93;;;10.30;99.90;;;;;;5045873;28;20088;-77
2022/10/02 04:22:10;;;;;;;0.80;0.80;;;10.40;99.90;;;;;;5052535;28;20041;-77
2022/10/02 04:24:44;;;;;;;1.40;1.10;;;10.40;99.90;;;;;;5036995;28;20052;-77
2022/10/02 04:27:28;;;;;;;1.23;1.10;;;10.40;99.90;;;;;;5053356;28;20048;-77
2022/10/02 04:30:15;;;;;;;2.95;1.17;;;10.40;99.90;;;;;;5052124;28;20072;-77
2022/10/02 04:32:41;;;;;;;1.13;1.02;;;10.40;99.90;;;;;;5035835;28;20166;-77
2022/10/02 04:35:27;;;;;;;1.15;0.98;;;10.40;99.90;;;;;;5031256;28;20490;-77
2022/10/02 04:38:15;;;;;;;1.88;1.00;;;10.40;99.90;;;;;;5034661;28;20392;-77
2022/10/02 04:40:59;;;;;;;1.33;1.10;;;10.40;99.90;;;;;;5053809;28;20076;-77
2022/10/02 04:43:55;;;;;;;1.05;0.88;;;10.40;99.90;;;;;;5053336;28;20040;-77
2022/10/02 04:46:54;;;;;;;1.95;1.00;;;10.40;99.90;;;;;;5033059;28;20040;-77
2022/10/02 04:49:23;;;;;;;1.48;0.98;;;10.40;99.90;;;;;;5045752;28;20045;-77
2022/10/02 04:52:07;;;;;;;2.13;1.02;;;10.40;99.90;;;;;;5035638;28;20167;-77
2022/10/02 04:55:31;;;;;;;0.90;0.90;;;10.40;99.90;;;;;;5053505;28;20036;-77
2022/10/02 04:58:21;;;;;;;1.73;1.10;;;10.40;99.90;;;;;;4975639;28;20490;-78
2022/10/02 05:01:06;;;;;;;1.10;0.95;;;10.40;99.90;;;;;;5037236;28;20052;-78
2022/10/02 05:03:46;;;;;;;1.60;1.10;;;10.30;99.90;;;;;;5054456;28;20143;-77
2022/10/02 05:06:24;;;;;;;1.20;1.05;;;10.30;99.90;;;;;;5054863;28;20453;-77
2022/10/02 05:09:40;;;;;;;1.77;1.10;;;10.30;99.90;;;;;;5055769;28;20036;-77
2022/10/02 05:12:22;;;;;;;1.30;1.20;;;10.30;99.90;;;;;;5003291;28;20080;-77
2022/10/02 05:15:12;;;;;;;1.45;1.00;;;10.30;99.90;;;;;;5053398;28;20025;-77
2022/10/02 05:17:52;;;;;;;0.80;0.80;;;10.30;99.90;;;;;;5054813;28;20115;-77
2022/10/02 05:21:00;;;;;;;1.60;1.00;;;10.30;99.90;;;;;;5056622;28;20040;-77
2022/10/02 05:23:53;;;;;;;1.17;1.00;;;10.20;99.90;;;;;;5055910;28;20094;-77
2022/10/02 05:26:47;;;;;;;1.08;0.90;;;10.20;99.90;;;;;;5051841;28;20048;-77
2022/10/02 05:29:47;;;;;;;1.90;0.93;;;10.20;99.90;;;;;;5049015;28;20049;-77
2022/10/02 05:32:21;;;;;;;0.98;0.88;;;10.20;99.90;;;;;;5032914;28;20086;-77
2022/10/02 05:34:52;;;;;;;0.90;0.80;;;10.10;99.90;;;;;;5056709;28;20083;-77
2022/10/02 05:37:43;;;;;;;0.70;0.70;;;10.10;99.90;;;;;;5055273;28;20048;-77
2022/10/02 05:40:46;;;;;;;1.23;0.85;;;10.10;99.90;;;;;;5048294;28;20119;-77
2022/10/02 05:43:20;;;;;;;1.38;0.85;;;10.10;99.90;;;;;;5056522;28;20037;-77
2022/10/02 05:45:51;;;;;;;2.05;0.93;;;10.10;99.90;;;;;;5039644;28;20056;-77
2022/10/02 05:48:20;;;;;;;1.77;0.98;;;10.00;99.90;;;;;;5055336;28;20110;-77
2022/10/02 05:50:50;;;;;;;0.70;0.70;;;10.00;99.90;;;;;;5056009;28;20043;-77
2022/10/02 05:53:56;;;;;;;1.33;0.90;;;10.00;99.90;;;;;;5052506;28;20105;-77
2022/10/02 05:56:38;;;;;;;1.40;0.85;;;10.00;99.90;;;;;;5045539;28;20050;-77
2022/10/02 05:59:17;;;;;;;0.77;0.77;;;9.90;99.90;;;;;;5049065;28;20071;-77
2022/10/02 06:01:47;;;;;;;1.52;1.00;;;9.90;99.90;;;;;;5035660;28;20398;-77
2022/10/02 06:04:21;;;;;;;1.40;0.90;;;10.00;99.90;;;;;;5053463;28;20049;-77
2022/10/02 06:06:53;;;;;;;1.10;0.95;;;10.00;99.90;;;;;;5037736;28;20037;-77
2022/10/02 06:09:23;;;;;;;2.00;0.80;;;10.00;99.90;;;;;;5038442;28;20040;-77
2022/10/02 06:11:54;;;;;;;1.55;0.80;;;10.10;99.90;;;;;;5055671;28;20045;-77
2022/10/02 06:14:59;;;;;;;0.98;0.88;;;10.10;99.90;;;;;;5039242;28;20050;-77
2022/10/02 06:17:50;;;;;;;1.08;0.90;;;10.10;99.90;;;;;;5054517;28;20028;-77
2022/10/02 06:20:43;;;;;;;2.13;1.02;;;10.20;99.90;;;;;;5055488;28;20060;-77
2022/10/02 06:23:19;;;;;;;1.00;0.90;;;10.30;99.90;;;;;;5043008;28;20045;-77
2022/10/02 06:26:00;;;;;;;2.35;1.20;;;10.30;99.90;;;;;;5046964;28;20045;-78
2022/10/02 06:28:34;;;;;;;1.67;1.10;;;10.40;99.90;;;;;;5050272;28;20040;-77
2022/10/02 06:31:08;;;;;;;2.05;1.15;;;10.50;99.90;;;;;;5054361;28;20047;-77
2022/10/02 06:33:34;;;;;;;1.58;1.05;;;10.60;99.90;;;;;;5053410;28;20049;-77
2022/10/02 06:36:47;;;;;;;1.33;1.10;;;10.60;99.90;;;;;;5060513;28;20033;-77
2022/10/02 06:39:41;;;;;;;1.60;1.00;;;10.60;99.90;;;;;;5031493;28;20037;-77
2022/10/02 06:42:26;;;;;;;1.40;1.30;;;10.70;99.90;;;;;;5052061;28;20510;-78
2022/10/02 06:44:55;;;;;;;3.08;1.35;;;10.70;99.90;;;;;;5046801;28;20043;-78
2022/10/02 06:47:43;;;;;;;1.25;0.93;;;10.80;99.90;;;;;;5022901;28;20107;-77
2022/10/02 06:50:39;;;;;;;1.52;0.90;;;10.90;99.90;;;;;;5037300;28;20446;-77
2022/10/02 06:53:11;;;;;;;1.08;0.85;;;11.00;99.90;;;;;;5034760;28;20028;-77
2022/10/02 06:56:12;;;;;;;1.60;1.00;;;11.10;99.90;;;;;;5043080;28;20033;-77
2022/10/02 06:59:03;;;;;;;1.25;0.80;;;11.20;99.90;;;;;;5044386;28;20051;-76
2022/10/02 07:01:37;;;;;;;3.10;0.88;;;11.30;99.90;;;;;;5049004;28;20054;-77
2022/10/02 07:04:41;;;;;;;0.82;0.75;;;11.20;99.90;;;;;;5049157;28;20112;-76
2022/10/02 07:07:25;;;;;;;0.77;0.70;;;11.30;99.90;;;;;;5037738;28;20033;-77
2022/10/02 07:09:56;;;;;;;1.00;0.80;;;11.30;99.90;;;;;;5038145;28;20406;-76
2022/10/02 07:12:32;;;;;;;1.50;0.75;;;11.30;99.90;;;;;;5051543;28;20063;-75
2022/10/02 07:15:35;;;;;;;0.82;0.70;;;11.30;99.90;;;;;;5041073;28;20032;-76
2022/10/02 07:18:04;;;;;;;0.90;0.63;;;11.30;99.90;;;;;;5034424;28;20140;-76
2022/10/02 07:20:54;;;;;;;1.20;0.75;;;11.40;99.90;;;;;;5039612;28;20436;-76
2022/10/02 07:23:45;;;;;;;2.35;0.68;;;11.40;99.90;;;;;;5035942;28;20127;-76
2022/10/02 07:26:34;;;;;;;2.63;1.10;;;11.50;99.90;;;;;;5046467;28;20410;-76
2022/10/02 07:29:24;;;;;;;1.17;0.80;;;11.70;99.90;;;;;;5051807;28;20522;-76
2022/10/02 07:31:49;;;;;;;1.50;1.02;;;11.90;99.90;;;;;;5043854;28;20084;-76
2022/10/02 07:34:43;;;;;;;3.13;1.23;;;12.10;99.90;;;;;;5052497;28;20064;-76
2022/10/02 07:37:11;;;;;;;1.55;0.90;;;12.30;99.90;;;;;;5046242;28;20135;-77
2022/10/02 07:40:17;;;;;;;0.88;0.77;;;12.30;99.90;;;;;;5053544;28;20036;-76
2022/10/02 07:42:51;;;;;;;2.90;1.17;;;12.50;99.90;;;;;;5049634;28;20036;-78
2022/10/02 07:45:37;;;;;;;2.03;1.00;;;12.60;99.90;;;;;;5047740;28;20044;-77
2022/10/02 07:48:21;;;;;;;1.90;1.20;;;12.70;99.90;;;;;;5045826;28;20086;-77
2022/10/02 07:51:45;;;;;;;2.33;1.02;;;12.80;99.90;;;;;;5054051;28;20131;-77
2022/10/02 07:54:20;;;;;;;1.48;1.13;;;12.90;99.90;;;;;;5052890;28;20514;-76
2022/10/02 07:56:48;;;;;;;1.67;0.82;;;13.00;99.90;;;;;;5037044;28;20051;-76
2022/10/02 07:59:16;;;;;;;1.70;0.80;;;13.10;99.90;;;;;;5052754;28;20051;-77
2022/10/02 08:01:44;;;;;;;0.98;0.85;;;13.30;99.90;;;;;;5054032;28;20052;-77
2022/10/02 08:04:28;;;;;;;1.90;0.75;;;13.40;99.90;;;;;;5064459;28;20043;-77
2022/10/02 08:06:59;;;;;;;1.52;0.75;;;13.40;99.90;;;;;;5036259;28;20040;-77
2022/10/02 08:09:36;;;;;;;1.70;0.77;;;13.40;99.90;;;;;;5033327;28;20057;-77
2022/10/02 08:12:21;;;;;;;1.20;0.60;;;13.40;99.90;;;;;;5036970;28;20036;-77
2022/10/02 08:14:50;;;;;;;1.08;0.60;;;13.30;99.90;;;;;;5045040;28;20045;-77
2022/10/02 08:17:28;;;;;;;0.45;0.40;;;13.30;99.90;;;;;;5053819;28;20047;-80
2022/10/02 08:20:01;;;;;;;1.17;0.70;;;13.30;99.90;;;;;;5053051;28;20482;-78
2022/10/02 08:22:35;;;;;;;1.63;0.90;;;13.40;99.90;;;;;;5040752;28;20486;-77
2022/10/02 08:25:12;;;;;;;1.33;0.80;;;13.40;99.90;;;;;;5060908;28;20043;-77
2022/10/02 08:28:10;;;;;;;0.60;0.57;;;13.30;99.90;;;;;;5029268;28;20097;-77
2022/10/02 08:30:37;;;;;;;0.70;0.63;;;13.40;99.90;;;;;;5054289;28;20079;-77
2022/10/02 08:33:13;;;;;;;1.30;0.73;;;13.50;99.90;;;;;;5056747;28;20115;-78
2022/10/02 08:35:54;;;;;;;0.60;0.60;;;13.60;99.90;;;;;;5057528;28;20063;-76
2022/10/02 08:38:40;;;;;;;1.10;0.80;;;13.60;99.90;;;;;;5050932;28;20574;-76
2022/10/02 08:41:38;;;;;;;1.10;0.77;;;13.70;99.90;;;;;;5037631;28;20044;-76
2022/10/02 08:44:24;;;;;;;1.45;0.60;;;13.70;99.90;;;;;;5052031;28;20048;-75
2022/10/02 08:47:02;;;;;;;1.17;0.73;;;13.80;99.90;;;;;;5055096;28;20040;-77
2022/10/02 08:49:34;;;;;;;2.45;0.80;;;13.90;99.90;;;;;;5055982;28;20044;-76
2022/10/02 08:52:27;;;;;;;1.40;0.63;;;14.00;99.90;;;;;;5055312;28;20044;-76
2022/10/02 08:55:08;;;;;;;0.75;0.63;;;14.10;99.90;;;;;;5052760;28;20036;-76
2022/10/02 08:57:53;;;;;;;1.45;0.60;;;14.20;99.90;;;;;;5044539;28;20045;-75
2022/10/02 09:00:21;;;;;;;1.85;0.70;;;14.30;99.90;;;;;;5039322;28;20510;-76
2022/10/02 09:03:26;;;;;;;2.75;0.50;;;14.40;99.90;;;;;;5048370;28;20570;-77
2022/10/02 09:06:18;;;;;;;1.98;0.70;;;14.60;99.90;;;;;;5056433;28;20183;-77
2022/10/02 09:09:20;;;;;;;1.67;0.60;;;14.80;99.90;;;;;;5054154;28;20071;-76
2022/10/02 09:11:52;;;;;;;2.80;0.55;;;15.00;99.90;;;;;;5056190;28;20047;-76
2022/10/02 09:14:57;;;;;;;2.13;0.60;;;15.10;99.90;;;;;;5055800;28;20127;-75
2022/10/02 09:17:45;;;;;;;0.50;0.47;;;15.20;99.90;;;;;;5011367;28;20055;-75
2022/10/02 09:20:20;;;;;;;1.17;0.43;;;15.20;99.90;;;;;;5036838;28;20029;-75
2022/10/02 09:23:14;;;;;;;2.53;0.50;;;15.30;99.90;;;;;;5045757;28;20183;-76
2022/10/02 09:25:46;;;;;;;1.27;0.50;;;15.30;99.90;;;;;;5047818;28;20044;-77
2022/10/02 09:28:58;;;;;;;0.83;0.60;;;15.30;99.90;;;;;;5048419;28;20041;-76
2022/10/02 09:31:42;;;;;;;1.30;0.50;;;15.30;99.90;;;;;;5051294;28;20139;-76
2022/10/02 09:34:19;;;;;;;0.55;0.50;;;15.30;99.90;;;;;;5039771;28;20131;-78
2022/10/02 09:37:07;;;;;;;0.70;0.30;;;15.40;99.90;;;;;;5035179;28;20033;-76
2022/10/02 09:39:52;;;;;;;1.55;0.45;;;15.40;99.90;;;;;;5051090;28;20040;-76
2022/10/02 09:43:02;;;;;;;0.88;0.40;;;15.50;99.90;;;;;;5048577;28;20410;-77
2022/10/02 09:45:57;;;;;;;1.30;0.40;;;15.60;99.90;;;;;;4998214;28;20571;-76
2022/10/02 09:48:31;;;;;;;1.30;0.40;;;15.70;99.90;;;;;;5048432;28;20131;-76
2022/10/02 09:51:25;;;;;;;0.70;0.50;;;15.80;99.90;;;;;;5036887;28;20116;-78
2022/10/02 09:53:53;;;;;;;;;;;15.90;99.90;;;;;;5042583;28;20577;-77
2022/10/02 09:56:57;;;;;;;0.63;0.55;;;15.90;99.90;;;;;;5049396;28;19969;-77
2022/10/02 09:59:35;;;;;;;1.17;0.65;;;16.00;99.90;;;;;;5033841;28;20395;-75
2022/10/02 10:02:06;;;;;;;0.85;0.30;;;16.20;99.90;;;;;;5043205;28;20040;-77
2022/10/02 10:05:25;;;;;;;1.42;0.45;;;16.30;99.90;;;;;;5100742;22;20083;-81
2022/10/02 10:08:09;;;;;;;1.35;0.50;;;16.50;99.90;;;;;;5042473;28;20057;-79
2022/10/02 10:10:57;;;;;;;0.85;0.75;;;16.50;99.90;;;;;;5058930;28;20090;-79
2022/10/02 10:14:11;;;;;;;1.13;0.40;;;16.30;99.90;;;;;;5057926;28;20071;-79
2022/10/02 10:17:17;;;;;;;0.88;0.40;;;16.10;99.90;;;;;;5037769;28;20402;-79
2022/10/02 10:19:45;;;;;;;0.90;0.47;;;15.80;99.90;;;;;;5034409;28;20532;-79
2022/10/02 10:22:48;;;;;;;0.47;0.30;;;15.60;99.90;;;;;;5057486;28;20514;-81
2022/10/02 10:25:41;;;;;;;1.13;0.47;;;15.40;99.90;;;;;;5040951;28;20068;-79
2022/10/02 10:28:38;;;;;;;0.93;0.45;;;15.20;99.90;;;;;;5040905;28;20041;-80
2022/10/02 10:31:43;;;;;;;0.90;0.40;;;15.10;99.90;;;;;;5028535;28;20083;-81
2022/10/02 10:34:34;;;;;;;1.10;0.40;;;15.10;99.90;;;;;;5023058;28;20049;-80
2022/10/02 10:39:58;;;;;;;1.00;0.50;;;15.30;99.90;;;;;;5053899;28;20159;-78
2022/10/02 10:42:23;;;;;;;1.10;0.50;;;15.30;99.90;;;;;;5035943;28;20089;-78
2022/10/02 10:45:21;;;;;;;1.70;0.50;;;15.40;99.90;;;;;;5038639;28;20382;-78
2022/10/02 10:47:56;;;;;;;0.80;0.43;;;15.70;99.90;;;;;;5052742;28;20047;-78
2022/10/02 10:50:34;;;;;;;1.95;0.52;;;16.00;99.90;;;;;;5038720;28;20052;-79
2022/10/02 10:53:03;;;;;;;1.08;0.43;;;16.00;99.90;;;;;;5070689;28;20045;-79
2022/10/02 10:55:47;;;;;;;0.45;0.30;;;16.00;99.90;;;;;;5053527;28;20036;-79
2022/10/02 10:58:54;;;;;;;0.68;0.40;;;16.00;99.90;;;;;;5035044;28;20045;-79
2022/10/02 11:01:27;;;;;;;1.08;0.38;;;15.80;99.90;;;;;;5053495;28;20060;-79
2022/10/02 11:04:20;;;;;;;2.97;0.60;;;15.70;99.90;;;;;;5038321;28;20453;-79
2022/10/02 11:06:56;;;;;;;1.15;0.40;;;15.60;99.90;;;;;;5037532;28;20044;-79
2022/10/02 11:09:46;;;;;;;0.30;0.30;;;15.60;99.90;;;;;;5037722;28;20107;-79
2022/10/02 11:12:31;;;;;;;0.50;0.45;;;15.70;99.90;;;;;;5038206;28;20041;-78
2022/10/02 11:15:46;;;;;;;0.93;0.50;;;15.70;99.90;;;;;;5033907;28;20490;-79
2022/10/02 11:18:27;;;;;;;1.08;0.50;;;15.60;99.90;;;;;;5020083;28;20052;-78
2022/10/02 11:21:21;;;;;;;0.40;0.40;;;15.50;99.90;;;;;;5037413;28;20402;-79
2022/10/02 11:23:52;;;;;;;;;;;15.40;99.90;;;;;;5037570;28;20396;-80
2022/10/02 11:26:21;;;;;;;1.02;0.40;;;15.40;99.90;;;;;;5053916;28;19916;-80
2022/10/02 11:29:16;;;;;;;1.20;0.68;;;15.20;99.90;;;;;;5037592;28;20136;-80
2022/10/02 11:32:01;;;;;;;1.70;0.38;;;15.10;99.90;;;;;;5054487;28;20080;-78
2022/10/02 11:34:36;;;;;;;0.68;0.40;;;15.00;99.90;;;;;;5054413;28;20098;-78
2022/10/02 11:37:11;;;;;;;0.95;0.40;;;15.00;99.90;;;;;;5039108;28;20062;-78
2022/10/02 11:39:57;;;;;;;1.02;0.47;;;15.10;99.90;;;;;;5041330;28;20128;-79
2022/10/02 11:42:32;;;;;;;1.08;0.30;;;15.80;99.90;;;;;;5037072;28;20044;-78
2022/10/02 11:45:07;;;;;;;0.80;0.43;;;16.60;99.90;;;;;;5054960;28;20048;-78
2022/10/02 11:47:45;;;;;;;1.00;0.32;;;17.20;99.90;;;;;;5049996;28;20525;-79
2022/10/02 11:50:32;;;;;;;1.92;0.50;;;17.60;99.90;;;;;;5046363;28;20051;-79
2022/10/02 11:53:23;;;;;;;2.03;0.47;;;18.10;99.90;;;;;;5050837;28;20036;-79
2022/10/02 11:56:25;;;;;;;0.98;0.20;;;18.50;99.90;;;;;;5037544;28;20036;-79
2022/10/02 11:59:17;;;;;;;2.05;0.50;;;18.40;99.90;;;;;;5054984;28;20036;-80
2022/10/02 12:02:01;;;;;;;0.98;0.40;;;18.00;99.90;;;;;;5038587;28;20040;-80
2022/10/02 12:04:39;;;;;;;1.17;0.30;;;17.40;99.90;;;;;;5055099;28;20036;-80
2022/10/02 12:07:23;;;;;;;0.52;0.20;;;17.10;99.90;;;;;;5038147;28;20069;-79
2022/10/02 12:10:27;;;;;;;0.68;0.30;;;16.80;99.90;;;;;;5039109;28;20039;-79
2022/10/02 12:12:59;;;;;;;;;;;16.50;99.90;;;;;;5037652;28;20037;-79
2022/10/02 12:15:49;;;;;;;1.30;0.45;;;16.40;99.90;;;;;;5036536;28;19921;-80
2022/10/02 12:18:42;;;;;;;2.72;0.40;;;16.40;99.90;;;;;;5035824;28;20105;-78
2022/10/02 12:27:44;;;;;;;0.80;0.30;;;16.70;99.90;;;;;;5057812;28;20131;-79
2022/10/02 12:30:13;;;;;;;1.15;0.30;;;16.90;99.90;;;;;;5041023;28;20070;-78
2022/10/02 12:33:14;;;;;;;1.30;0.40;;;17.10;99.90;;;;;;5040904;28;20041;-78
2022/10/02 12:36:04;;;;;;;1.45;0.50;;;17.30;99.90;;;;;;5042397;28;20056;-78
2022/10/02 12:38:48;;;;;;;1.13;0.40;;;17.40;99.90;;;;;;5036661;28;20398;-79
2022/10/02 12:41:36;;;;;;;0.63;0.38;;;17.50;99.90;;;;;;5028790;28;20102;-79
2022/10/02 12:44:10;;;;;;;1.17;0.40;;;17.50;99.90;;;;;;5039769;28;20071;-79
2022/10/02 12:46:49;;;;;;;0.50;0.30;;;17.60;99.90;;;;;;5040044;28;20131;-78
2022/10/02 12:49:20;;;;;;;0.35;0.30;;;17.70;99.90;;;;;;5039097;28;20032;-78
2022/10/02 12:52:08;;;;;;;0.90;0.35;;;17.80;99.90;;;;;;5039559;28;20125;-79
2022/10/02 12:54:57;;;;;;;0.40;0.35;;;17.80;99.90;;;;;;5056254;28;20102;-78
2022/10/02 12:57:54;;;;;;;2.33;0.30;;;17.90;99.90;;;;;;5054740;28;20037;-78
2022/10/02 13:00:35;;;;;;;0.77;0.40;;;17.90;99.90;;;;;;5038271;28;20059;-79
2022/10/02 13:03:32;;;;;;;0.55;0.20;;;18.00;99.90;;;;;;5038910;28;20044;-78
2022/10/02 13:06:03;;;;;;;0.75;0.40;;;18.10;99.90;;;;;;5055571;28;20051;-77
2022/10/02 13:08:41;;;;;;;0.60;0.28;;;17.90;99.90;;;;;;5038029;28;20045;-79
2022/10/02 13:11:26;;;;;;;1.17;0.40;;;17.80;99.90;;;;;;5037296;28;20041;-78
2022/10/02 13:14:37;;;;;;;0.80;0.32;;;17.80;99.90;;;;;;5035081;28;20535;-78
2022/10/02 13:17:22;;;;;;;0.40;0.20;;;17.80;99.90;;;;;;5044712;28;20505;-78
2022/10/02 13:20:05;;;;;;;1.17;0.40;;;17.80;99.90;;;;;;5048890;28;20124;-78
2022/10/02 13:22:39;;;;;;;0.32;0.30;;;17.80;99.90;;;;;;5064277;28;20124;-78
2022/10/02 13:25:25;;;;;;;0.20;0.20;;;17.80;99.90;;;;;;5030278;28;20127;-78
2022/10/02 13:27:58;;;;;;;0.98;0.30;;;17.90;99.90;;;;;;5037595;28;20036;-78
2022/10/02 13:30:32;;;;;;;1.42;0.52;;;18.00;99.90;;;;;;5039384;28;20051;-78
2022/10/02 13:33:23;;;;;;;0.60;0.40;;;17.90;99.90;;;;;;5055529;28;20052;-79
2022/10/02 13:36:11;;;;;;;1.90;0.40;;;17.70;99.90;;;;;;5039179;28;20036;-78
2022/10/02 13:38:40;;;;;;;0.50;0.28;;;17.30;99.90;;;;;;5036175;28;20043;-78
2022/10/02 13:41:39;;;;;;;0.85;0.40;;;17.10;99.90;;;;;;5051414;28;20119;-78
2022/10/02 13:44:37;;;;;;;0.82;0.30;;;16.80;99.90;;;;;;5044999;28;20354;-78
2022/10/02 13:47:08;;;;;;;1.08;0.43;;;16.50;99.90;;;;;;5048120;28;20614;-79
2022/10/02 13:49:55;;;;;;;0.47;0.30;;;16.20;99.90;;;;;;5039107;28;20044;-79
2022/10/02 13:52:39;;;;;;;1.27;0.30;;;16.00;99.90;;;;;;5034930;28;20041;-78
2022/10/02 13:55:30;;;;;;;1.08;0.30;;;15.90;99.90;;;;;;5055126;28;20417;-78
2022/10/02 13:58:07;;;;;;;1.48;0.32;;;15.70;99.90;;;;;;5038328;28;20062;-78
2022/10/02 14:00:36;;;;;;;1.40;0.30;;;15.60;99.90;;;;;;5056172;28;20051;-78
2022/10/02 14:03:12;;;;;;;0.28;0.20;;;15.50;99.90;;;;;;5037175;28;20053;-78
2022/10/02 14:06:00;;;;;;;0.75;0.43;;;15.50;99.90;;;;;;5055198;28;20040;-78
2022/10/02 14:08:47;;;;;;;1.10;0.30;;;15.50;99.90;;;;;;5044604;28;20048;-77
2022/10/02 14:11:31;;;;;;;0.65;0.40;;;15.60;99.90;;;;;;5055175;28;20483;-77
2022/10/02 14:14:11;;;;;;;0.80;0.28;;;15.60;99.90;;;;;;5038228;28;20043;-78